createdAt,value
2019-04-04T00:01:17.099Z,16.00
2019-04-04T00:03:45.943Z,17.65
2019-04-04T00:06:14.407Z,16.82
2019-04-04T00:08:42.859Z,16.27
2019-04-04T00:11:11.600Z,14.25
2019-04-04T00:13:42.081Z,15.72
2019-04-04T00:16:10.563Z,14.85
2019-04-04T00:18:39.026Z,14.80
2019-04-04T00:21:07.493Z,14.30
2019-04-04T00:23:38.083Z,14.18
2019-04-04T00:26:06.446Z,14.68
2019-04-04T00:28:35.195Z,13.62
2019-04-04T00:31:03.710Z,13.48
2019-04-04T00:33:32.475Z,14.90
2019-04-04T00:36:02.655Z,14.90
2019-04-04T00:38:31.111Z,14.10
2019-04-04T00:40:59.635Z,13.95
2019-04-04T00:43:28.106Z,13.38
2019-04-04T00:45:56.558Z,14.55
2019-04-04T00:48:25.334Z,14.30
2019-04-04T00:50:53.782Z,14.38
2019-04-04T00:53:22.607Z,13.95
2019-04-04T00:55:51.063Z,12.65
2019-04-04T00:58:20.797Z,12.43
2019-04-04T01:00:49.919Z,12.35
2019-04-04T01:03:18.708Z,11.80
2019-04-04T01:05:47.156Z,11.57
2019-04-04T01:08:15.980Z,12.73
2019-04-04T01:10:44.772Z,10.45
2019-04-04T01:13:13.239Z,9.73
2019-04-04T01:15:42.056Z,9.63
2019-04-04T01:18:10.843Z,10.48
2019-04-04T01:20:39.296Z,10.55
2019-04-04T01:23:07.763Z,11.90
2019-04-04T01:25:36.207Z,12.13
2019-04-04T01:28:07.791Z,12.55
2019-04-04T01:30:34.923Z,10.15
2019-04-04T01:33:03.936Z,9.73
2019-04-04T01:35:32.439Z,11.43
2019-04-04T01:38:01.296Z,9.53
2019-04-04T01:40:32.914Z,10.40
2019-04-04T01:43:00.262Z,8.63
2019-04-04T01:45:29.001Z,8.95
2019-04-04T01:47:57.796Z,8.73
2019-04-04T01:50:26.583Z,9.60
2019-04-04T01:52:55.107Z,10.55
2019-04-04T01:55:23.572Z,8.30
2019-04-04T01:57:52.023Z,8.23
2019-04-04T02:00:20.658Z,8.93
2019-04-04T02:02:49.965Z,7.97
2019-04-04T02:05:19.554Z,7.17
2019-04-04T02:07:48.259Z,7.25
2019-04-04T02:10:17.029Z,5.72
2019-04-04T02:12:45.827Z,7.22
2019-04-04T02:15:14.947Z,7.20
2019-04-04T02:17:43.929Z,7.65
2019-04-04T02:20:12.702Z,6.70
2019-04-04T02:22:41.161Z,8.50
2019-04-04T02:25:10.099Z,9.45
2019-04-04T02:27:38.547Z,8.20
2019-04-04T02:30:08.504Z,7.55
2019-04-04T02:32:37.402Z,6.65
2019-04-04T02:35:10.273Z,7.53
2019-04-04T02:37:37.953Z,8.45
2019-04-04T02:40:08.991Z,7.17
2019-04-04T02:42:38.103Z,9.25
2019-04-04T02:45:09.976Z,9.85
2019-04-04T02:47:38.420Z,8.60
2019-04-04T02:50:08.090Z,7.67
2019-04-04T02:52:36.844Z,7.40
2019-04-04T02:55:05.779Z,6.92
2019-04-04T02:57:34.280Z,6.20
2019-04-04T03:00:02.976Z,9.23
2019-04-04T03:02:31.419Z,7.58
2019-04-04T03:05:00.202Z,5.70
2019-04-04T03:07:30.808Z,6.50
2019-04-04T03:09:59.214Z,7.20
2019-04-04T03:12:27.659Z,6.78
2019-04-04T03:14:56.136Z,8.20
2019-04-04T03:17:24.976Z,6.70
2019-04-04T03:19:53.444Z,11.20
2019-04-04T03:22:21.888Z,9.93
2019-04-04T03:24:50.358Z,7.62
2019-04-04T03:27:18.878Z,4.80
2019-04-04T03:29:47.338Z,8.78
2019-04-04T03:32:16.614Z,5.15
2019-04-04T03:34:49.882Z,5.47
2019-04-04T03:37:17.063Z,6.50
2019-04-04T03:39:45.855Z,5.87
2019-04-04T03:42:14.657Z,6.45
2019-04-04T03:44:43.540Z,5.22
2019-04-04T03:47:12.339Z,6.10
2019-04-04T03:49:41.139Z,5.60
2019-04-04T03:52:11.233Z,4.55
2019-04-04T03:54:40.455Z,4.97
2019-04-04T03:57:12.270Z,7.90
2019-04-04T03:59:39.092Z,2.87
2019-04-04T04:02:07.631Z,4.78
2019-04-04T04:04:36.086Z,5.05
2019-04-04T04:07:04.937Z,5.42
2019-04-04T04:09:33.460Z,8.53
2019-04-04T04:12:02.416Z,4.03
2019-04-04T04:14:30.864Z,2.80
2019-04-04T04:16:59.404Z,2.92
2019-04-04T04:19:30.964Z,4.08
2019-04-04T04:21:58.707Z,4.25
2019-04-04T04:24:29.579Z,3.22
2019-04-04T04:26:57.358Z,3.00
2019-04-04T04:29:29.577Z,3.70
2019-04-04T04:31:55.995Z,8.75
2019-04-04T04:34:24.727Z,6.45
2019-04-04T04:36:53.264Z,4.70
2019-04-04T04:39:21.782Z,6.35
2019-04-04T04:41:52.973Z,5.30
2019-04-04T04:44:20.425Z,10.00
2019-04-04T04:46:50.281Z,7.53
2019-04-04T04:49:23.193Z,9.55
2019-04-04T04:51:49.923Z,5.42
2019-04-04T04:54:20.369Z,5.65
2019-04-04T04:56:48.556Z,8.20
2019-04-04T04:59:17.007Z,8.55
2019-04-04T05:01:45.847Z,7.87
2019-04-04T05:04:14.643Z,11.28
2019-04-04T05:06:43.106Z,6.33
2019-04-04T05:09:13.676Z,7.95
2019-04-04T05:11:41.811Z,9.18
2019-04-04T05:14:10.259Z,9.65
2019-04-04T05:16:38.742Z,10.75
2019-04-04T05:19:07.253Z,9.78
2019-04-04T05:21:36.080Z,9.25
2019-04-04T05:24:04.522Z,9.50
2019-04-04T05:26:34.500Z,7.85
2019-04-04T05:29:03.605Z,11.60
2019-04-04T05:31:32.134Z,11.25
2019-04-04T05:34:00.627Z,11.70
2019-04-04T05:36:29.131Z,13.45
2019-04-04T05:38:57.945Z,8.88
2019-04-04T05:41:27.248Z,8.25
2019-04-04T05:43:57.475Z,11.12
2019-04-04T05:46:26.363Z,11.83
2019-04-04T05:48:54.815Z,9.23
2019-04-04T05:51:23.263Z,9.30
2019-04-04T05:53:52.031Z,17.20
2019-04-04T05:56:20.499Z,8.85
2019-04-04T05:58:50.998Z,12.73
2019-04-04T06:01:21.279Z,15.30
2019-04-04T06:03:50.092Z,17.90
2019-04-04T06:06:18.958Z,15.78
2019-04-04T06:08:47.771Z,12.98
2019-04-04T06:11:16.283Z,16.00
2019-04-04T06:13:44.755Z,11.90
2019-04-04T06:16:13.199Z,12.55
2019-04-04T06:18:43.006Z,11.63
2019-04-04T06:21:12.130Z,12.20
2019-04-04T06:23:40.594Z,14.78
2019-04-04T06:26:09.055Z,13.62
2019-04-04T06:28:37.894Z,13.80
2019-04-04T06:31:06.688Z,14.53
2019-04-04T06:33:35.437Z,16.62
2019-04-04T06:36:04.783Z,13.93
2019-04-04T06:38:33.579Z,14.28
2019-04-04T06:41:02.589Z,18.27
2019-04-04T06:43:31.120Z,16.50
2019-04-04T06:45:59.654Z,16.67
2019-04-04T06:48:29.350Z,15.83
2019-04-04T06:50:58.716Z,15.45
2019-04-04T06:53:27.464Z,16.10
2019-04-04T06:55:55.982Z,17.45
2019-04-04T06:58:24.736Z,15.68
2019-04-04T07:00:53.531Z,14.93
2019-04-04T07:03:22.331Z,16.25
2019-04-04T07:05:50.783Z,14.73
2019-04-04T07:08:19.251Z,16.20
2019-04-04T07:10:57.358Z,16.32
2019-04-04T07:13:22.011Z,16.48
2019-04-04T07:16:05.396Z,14.35
2019-04-04T07:18:19.583Z,17.95
2019-04-04T07:20:48.902Z,14.28
2019-04-04T07:23:17.480Z,13.98
2019-04-04T07:25:45.930Z,14.43
2019-04-04T07:28:14.394Z,16.80
2019-04-04T07:30:42.843Z,16.23
2019-04-04T07:33:12.663Z,15.75
2019-04-04T07:35:41.747Z,16.50
2019-04-04T07:38:10.471Z,16.10
2019-04-04T07:40:39.231Z,17.05
2019-04-04T07:43:08.760Z,17.77
2019-04-04T07:45:37.636Z,16.12
2019-04-04T07:48:06.427Z,16.60
2019-04-04T07:50:35.216Z,16.97
2019-04-04T07:53:04.873Z,16.90
2019-04-04T07:55:34.244Z,16.23
2019-04-04T07:58:02.769Z,17.77
2019-04-04T08:00:31.331Z,18.20
2019-04-04T08:02:59.849Z,16.87
2019-04-04T08:05:28.463Z,18.20
2019-04-04T08:07:56.992Z,19.55
2019-04-04T08:10:25.767Z,18.82
2019-04-04T08:12:54.218Z,18.55
2019-04-04T08:15:23.047Z,20.32
2019-04-04T08:17:51.495Z,18.10
2019-04-04T08:20:19.975Z,18.20
2019-04-04T08:22:48.495Z,19.55
2019-04-04T08:25:17.297Z,19.82
2019-04-04T08:27:46.085Z,19.85
2019-04-04T08:30:15.295Z,20.72
2019-04-04T08:32:44.079Z,19.25
2019-04-04T08:35:12.559Z,20.23
2019-04-04T08:37:41.367Z,19.27
2019-04-04T08:40:10.208Z,20.02
2019-04-04T08:42:38.657Z,18.73
2019-04-04T08:45:07.452Z,19.82
2019-04-04T08:47:35.926Z,20.75
2019-04-04T08:50:05.883Z,21.62
2019-04-04T08:52:34.360Z,22.80
2019-04-04T08:55:02.892Z,21.95
2019-04-04T08:57:31.434Z,22.95
2019-04-04T08:59:59.887Z,22.22
2019-04-04T09:02:28.359Z,23.10
2019-04-04T09:04:56.813Z,23.50
2019-04-04T09:07:25.282Z,23.77
2019-04-04T09:09:53.805Z,24.95
2019-04-04T09:12:22.487Z,23.07
2019-04-04T09:14:50.938Z,24.98
2019-04-04T09:17:19.421Z,28.12
2019-04-04T09:19:48.283Z,24.05
2019-04-04T09:22:16.763Z,25.75
2019-04-04T09:24:45.223Z,25.82
2019-04-04T09:27:13.695Z,28.38
2019-04-04T09:29:42.159Z,25.80
2019-04-04T09:32:10.703Z,25.20
2019-04-04T09:34:39.164Z,27.00
2019-04-04T09:37:08.892Z,25.62
2019-04-04T09:39:37.583Z,25.15
2019-04-04T09:42:06.063Z,24.65
2019-04-04T09:44:34.887Z,28.87
2019-04-04T09:47:05.514Z,28.70
2019-04-04T09:49:33.899Z,29.30
2019-04-04T09:52:02.375Z,27.77
2019-04-04T09:54:31.180Z,25.95
2019-04-04T09:56:59.663Z,26.77
2019-04-04T09:59:28.465Z,28.45
2019-04-04T10:01:56.939Z,29.00
2019-04-04T10:04:25.394Z,28.73
2019-04-04T10:06:53.943Z,29.80
2019-04-04T10:09:22.710Z,31.48
2019-04-04T10:11:51.179Z,30.68
2019-04-04T10:14:19.992Z,29.57
2019-04-04T10:16:48.462Z,32.88
2019-04-04T10:19:17.264Z,28.25
2019-04-04T10:21:45.736Z,31.42
2019-04-04T10:24:14.543Z,28.42
2019-04-04T10:26:43.019Z,33.73
2019-04-04T10:29:11.846Z,32.45
2019-04-04T10:31:40.723Z,30.75
2019-04-04T10:34:09.178Z,28.32
2019-04-04T10:36:38.003Z,30.10
2019-04-04T10:39:09.535Z,28.95
2019-04-04T10:41:38.030Z,27.22
2019-04-04T10:44:06.488Z,28.57
2019-04-04T10:46:35.018Z,26.50
2019-04-04T10:49:03.491Z,27.05
2019-04-04T10:51:32.287Z,26.85
2019-04-04T10:54:01.087Z,26.23
2019-04-04T10:56:29.876Z,27.32
2019-04-04T10:58:58.351Z,27.00
2019-04-04T11:01:27.159Z,26.20
2019-04-04T11:03:55.635Z,25.90
2019-04-04T11:06:24.096Z,28.67
2019-04-04T11:08:52.919Z,25.52
2019-04-04T11:11:21.383Z,27.93
2019-04-04T11:13:49.944Z,27.58
2019-04-04T11:16:29.510Z,23.52
2019-04-04T11:18:48.891Z,26.37
2019-04-04T11:21:17.349Z,30.23
2019-04-04T11:23:45.824Z,29.32
2019-04-04T11:26:14.576Z,34.73
2019-04-04T11:28:43.055Z,28.85
2019-04-04T11:31:11.856Z,27.60
2019-04-04T11:33:40.643Z,30.10
2019-04-04T11:36:09.439Z,27.25
2019-04-04T11:38:38.227Z,28.12
2019-04-04T11:41:07.019Z,29.18
2019-04-04T11:43:35.819Z,28.52
2019-04-04T11:46:04.283Z,28.70
2019-04-04T11:48:32.816Z,30.02
2019-04-04T11:51:01.580Z,29.70
2019-04-04T11:53:30.371Z,28.60
2019-04-04T11:55:58.872Z,32.98
2019-04-04T11:58:27.336Z,31.40
2019-04-04T12:00:57.775Z,35.10
2019-04-04T12:03:26.571Z,34.80
2019-04-04T12:05:55.365Z,29.35
2019-04-04T12:08:24.263Z,29.05
2019-04-04T12:10:53.159Z,29.87
2019-04-04T12:13:21.704Z,30.88
2019-04-04T12:15:50.179Z,36.83
2019-04-04T12:18:18.919Z,38.88
2019-04-04T12:20:47.707Z,35.10
2019-04-04T12:23:16.507Z,34.18
2019-04-04T12:25:45.402Z,34.40
2019-04-04T12:28:13.935Z,32.98
2019-04-04T12:30:42.411Z,33.30
2019-04-04T12:33:10.867Z,33.78
2019-04-04T12:35:39.652Z,35.70
2019-04-04T12:38:08.107Z,30.82
2019-04-04T12:40:36.923Z,31.80
2019-04-04T12:43:06.491Z,32.10
2019-04-04T12:45:34.968Z,33.35
2019-04-04T12:48:03.712Z,34.00
2019-04-04T12:50:32.261Z,37.28
2019-04-04T12:53:00.721Z,33.73
2019-04-04T12:55:29.198Z,34.95
2019-04-04T12:57:57.735Z,35.70
2019-04-04T13:00:26.555Z,36.35
2019-04-04T13:02:55.347Z,36.35
2019-04-04T13:05:23.819Z,36.75
2019-04-04T13:07:52.307Z,35.92
2019-04-04T13:10:32.519Z,38.60
2019-04-04T13:12:51.948Z,41.58
2019-04-04T13:15:20.847Z,39.80
2019-04-04T13:17:49.302Z,40.28
2019-04-04T13:20:18.229Z,40.52
2019-04-04T13:22:46.696Z,48.87
2019-04-04T13:25:15.611Z,44.10
2019-04-04T13:27:44.405Z,46.70
2019-04-04T13:30:14.575Z,45.88
2019-04-04T13:32:43.051Z,48.65
2019-04-04T13:35:11.806Z,46.45
2019-04-04T13:37:40.351Z,47.67
2019-04-04T13:40:08.951Z,52.13
2019-04-04T13:42:37.772Z,48.00
2019-04-04T13:45:07.171Z,48.83
2019-04-04T13:47:38.214Z,49.38
2019-04-04T13:50:08.561Z,50.65
2019-04-04T13:52:37.109Z,47.98
2019-04-04T13:55:06.540Z,51.42
2019-04-04T13:57:35.441Z,50.23
2019-04-04T14:00:06.472Z,51.13
2019-04-04T14:02:35.284Z,51.20
2019-04-04T14:05:10.178Z,48.78
2019-04-04T14:07:36.182Z,51.45
2019-04-04T14:10:06.547Z,52.27
2019-04-04T14:12:35.028Z,54.00
2019-04-04T14:15:05.526Z,52.45
2019-04-04T14:17:34.002Z,48.65
2019-04-04T14:20:02.766Z,51.60
2019-04-04T14:22:31.319Z,50.30
2019-04-04T14:24:59.779Z,51.68
2019-04-04T14:27:28.259Z,53.83
2019-04-04T14:29:57.015Z,57.35
2019-04-04T14:32:25.807Z,52.73
2019-04-04T14:34:54.598Z,52.70
2019-04-04T14:37:23.079Z,50.88
2019-04-04T14:39:51.884Z,51.25
2019-04-04T14:42:20.672Z,48.92
2019-04-04T14:44:49.164Z,48.98
2019-04-04T14:47:17.957Z,51.20
2019-04-04T14:49:46.601Z,49.03
2019-04-04T14:52:15.050Z,46.45
2019-04-04T14:54:43.604Z,47.20
2019-04-04T14:57:12.059Z,44.10
2019-04-04T14:59:40.534Z,44.60
2019-04-04T15:02:09.280Z,42.27
2019-04-04T15:04:38.064Z,42.15
2019-04-04T15:07:06.974Z,45.50
2019-04-04T15:09:35.863Z,45.10
2019-04-04T15:12:04.570Z,44.03
2019-04-04T15:14:33.340Z,43.35
2019-04-04T15:17:02.139Z,40.73
2019-04-04T15:19:30.618Z,45.88
2019-04-04T15:21:59.153Z,42.20
2019-04-04T15:24:27.702Z,47.05
2019-04-04T15:26:56.497Z,46.68
2019-04-04T15:29:25.044Z,48.08
2019-04-04T15:31:53.647Z,47.17
2019-04-04T15:34:22.135Z,51.60
2019-04-04T15:36:50.943Z,50.92
2019-04-04T15:39:19.422Z,50.38
2019-04-04T15:41:48.140Z,54.65
2019-04-04T15:44:16.619Z,58.15
2019-04-04T15:46:45.403Z,59.90
2019-04-04T15:49:14.299Z,56.65
2019-04-04T15:51:42.759Z,59.35
2019-04-04T15:54:11.235Z,58.98
2019-04-04T15:56:39.691Z,62.38
2019-04-04T15:59:08.447Z,61.18
2019-04-04T16:01:37.240Z,66.02
2019-04-04T16:04:05.718Z,64.82
2019-04-04T16:06:34.175Z,63.45
2019-04-04T16:09:04.234Z,64.95
2019-04-04T16:11:32.768Z,63.80
2019-04-04T16:14:01.611Z,58.85
2019-04-04T16:16:30.076Z,63.65
2019-04-04T16:18:58.552Z,62.90
2019-04-04T16:21:27.088Z,64.17
2019-04-04T16:23:55.563Z,66.40
2019-04-04T16:26:24.344Z,71.10
2019-04-04T16:28:53.144Z,79.27
2019-04-04T16:31:21.607Z,70.78
2019-04-04T16:33:50.155Z,73.10
2019-04-04T16:36:18.908Z,76.85
2019-04-04T16:38:47.383Z,72.22
2019-04-04T16:41:15.840Z,77.42
2019-04-04T16:43:44.393Z,81.92
2019-04-04T16:46:13.259Z,72.35
2019-04-04T16:48:41.735Z,76.65
2019-04-04T16:51:10.191Z,77.87
2019-04-04T16:53:39.021Z,81.57
2019-04-04T16:56:07.546Z,79.45
2019-04-04T16:58:37.012Z,83.33
2019-04-04T17:01:05.667Z,80.67
2019-04-04T17:03:34.512Z,84.70
2019-04-04T17:06:03.150Z,84.97
2019-04-04T17:08:31.706Z,86.28
2019-04-04T17:11:00.166Z,81.45
2019-04-04T17:13:28.639Z,84.03
2019-04-04T17:15:57.094Z,86.85
2019-04-04T17:18:25.825Z,85.42
2019-04-04T17:20:54.619Z,94.00
2019-04-04T17:23:23.417Z,87.82
2019-04-04T17:25:51.966Z,92.50
2019-04-04T17:28:20.687Z,91.50
2019-04-04T17:30:49.588Z,88.22
2019-04-04T17:33:18.483Z,88.27
2019-04-04T17:35:47.416Z,93.40
2019-04-04T17:38:16.267Z,90.72
2019-04-04T17:40:44.743Z,90.45
2019-04-04T17:43:13.203Z,89.13
2019-04-04T17:45:41.762Z,99.50
2019-04-04T17:48:10.591Z,91.72
2019-04-04T17:50:39.422Z,91.30
2019-04-04T17:53:08.695Z,101.05
2019-04-04T17:55:37.917Z,95.35
2019-04-04T17:58:07.098Z,91.15
2019-04-04T18:00:36.019Z,92.78
2019-04-04T18:03:04.555Z,92.92
2019-04-04T18:05:33.027Z,94.25
2019-04-04T18:08:01.788Z,89.90
2019-04-04T18:10:30.272Z,89.87
2019-04-04T18:12:59.165Z,91.22
2019-04-04T18:15:27.639Z,89.58
2019-04-04T18:17:56.741Z,88.35
2019-04-04T18:20:25.344Z,87.60
2019-04-04T18:22:54.063Z,83.70
2019-04-04T18:25:22.543Z,82.65
2019-04-04T18:27:51.311Z,71.40
2019-04-04T18:30:20.061Z,75.52
2019-04-04T18:32:48.791Z,74.77
2019-04-04T18:35:17.665Z,74.07
2019-04-04T18:37:46.485Z,78.35
2019-04-04T18:40:15.477Z,78.57
2019-04-04T18:42:53.260Z,67.53
2019-04-04T18:45:15.011Z,63.45
2019-04-04T18:47:43.904Z,61.40
2019-04-04T18:50:12.647Z,53.83
2019-04-04T18:52:41.158Z,57.45
2019-04-04T18:55:18.982Z,53.13
2019-04-04T18:57:39.904Z,54.25
2019-04-04T19:00:13.088Z,50.67
2019-04-04T19:02:42.495Z,50.03
2019-04-04T19:05:13.229Z,57.55
2019-04-04T19:07:41.941Z,50.60
2019-04-04T19:10:11.955Z,51.65
2019-04-04T19:12:40.410Z,47.05
2019-04-04T19:15:09.332Z,50.85
2019-04-04T19:17:37.861Z,51.20
2019-04-04T19:20:09.931Z,47.73
2019-04-04T19:22:38.463Z,46.23
2019-04-04T19:25:07.494Z,46.90
2019-04-04T19:27:36.464Z,43.17
2019-04-04T19:30:08.731Z,47.73
2019-04-04T19:32:37.524Z,47.15
2019-04-04T19:35:08.062Z,47.73
2019-04-04T19:37:36.951Z,51.77
2019-04-04T19:40:08.598Z,50.25
2019-04-04T19:42:37.133Z,50.50
2019-04-04T19:45:07.939Z,48.05
2019-04-04T19:47:36.731Z,44.40
2019-04-04T19:50:10.868Z,51.75
2019-04-04T19:52:39.754Z,50.80
2019-04-04T19:55:10.160Z,54.30
2019-04-04T19:57:38.691Z,53.00
2019-04-04T20:00:08.703Z,56.25
2019-04-04T20:02:37.475Z,52.70
2019-04-04T20:05:07.188Z,54.70
2019-04-04T20:07:35.975Z,55.92
2019-04-04T20:10:07.022Z,54.80
2019-04-04T20:12:35.915Z,57.67
2019-04-04T20:15:07.070Z,52.45
2019-04-04T20:17:35.610Z,56.15
2019-04-04T20:20:07.363Z,61.88
2019-04-04T20:22:35.823Z,63.50
2019-04-04T20:25:06.668Z,59.77
2019-04-04T20:27:35.125Z,59.00
2019-04-04T20:30:05.631Z,59.33
2019-04-04T20:32:34.444Z,60.60
2019-04-04T20:35:03.162Z,56.88
2019-04-04T20:37:31.619Z,62.00
2019-04-04T20:40:00.087Z,59.23
2019-04-04T20:42:47.968Z,63.02
2019-04-04T20:45:16.456Z,63.70
2019-04-04T20:47:45.011Z,62.62
2019-04-04T20:50:13.631Z,69.32
2019-04-04T20:52:43.519Z,66.15
2019-04-04T20:55:12.407Z,66.70
2019-04-04T20:57:40.863Z,69.35
2019-04-04T21:00:09.675Z,69.07
2019-04-04T21:02:38.500Z,63.00
2019-04-04T21:05:07.737Z,73.10
2019-04-04T21:07:36.582Z,71.25
2019-04-04T21:10:09.139Z,69.40
2019-04-04T21:12:37.951Z,69.00
2019-04-04T21:15:07.443Z,65.05
2019-04-04T21:17:35.922Z,67.55
2019-04-04T21:20:06.868Z,65.50
2019-04-04T21:22:35.405Z,68.65
2019-04-04T21:25:04.467Z,69.10
2019-04-04T21:27:32.935Z,72.90
2019-04-04T21:30:01.756Z,72.17
2019-04-04T21:32:30.649Z,71.55
2019-04-04T21:34:59.174Z,69.35
2019-04-04T21:37:27.648Z,67.10
2019-04-04T21:39:56.175Z,67.15
2019-04-04T21:42:24.723Z,71.15
2019-04-04T21:44:53.183Z,72.12
2019-04-04T21:47:21.651Z,70.83
2019-04-04T21:49:50.450Z,68.02
2019-04-04T21:52:19.256Z,68.87
2019-04-04T21:54:47.707Z,69.92
2019-04-04T21:57:16.178Z,73.60
2019-04-04T21:59:44.631Z,75.35
2019-04-04T22:02:13.094Z,69.90
2019-04-04T22:04:41.884Z,69.53
2019-04-04T22:07:10.351Z,75.17
2019-04-04T22:09:39.164Z,72.67
2019-04-04T22:12:07.638Z,70.67
2019-04-04T22:14:36.162Z,71.22
2019-04-04T22:17:04.715Z,72.27
2019-04-04T22:19:33.511Z,71.55
2019-04-04T22:22:01.987Z,74.75
2019-04-04T22:24:30.800Z,74.65
2019-04-04T22:26:59.691Z,72.35
2019-04-04T22:29:28.492Z,76.67
2019-04-04T22:31:57.371Z,75.12
2019-04-04T22:34:25.827Z,72.32
2019-04-04T22:36:54.294Z,70.70
2019-04-04T22:39:23.144Z,70.62
2019-04-04T22:41:51.615Z,74.07
2019-04-04T22:44:20.062Z,73.00
2019-04-04T22:46:48.813Z,71.15
2019-04-04T22:49:17.334Z,74.27
2019-04-04T22:51:45.806Z,78.37
2019-04-04T22:54:14.671Z,73.57
2019-04-04T22:56:43.148Z,80.03
2019-04-04T22:59:11.955Z,73.70
2019-04-04T23:01:40.847Z,77.12
2019-04-04T23:04:09.639Z,74.60
2019-04-04T23:06:38.111Z,74.03
2019-04-04T23:09:08.064Z,74.12
2019-04-04T23:11:36.535Z,72.78
2019-04-04T23:14:05.050Z,79.25
2019-04-04T23:16:33.519Z,75.60
2019-04-04T23:19:02.033Z,78.25
2019-04-04T23:21:30.527Z,71.95
2019-04-04T23:23:59.042Z,76.05
2019-04-04T23:26:27.858Z,74.03
2019-04-04T23:28:56.323Z,81.05
2019-04-04T23:31:25.242Z,77.67
2019-04-04T23:33:54.127Z,79.72
2019-04-04T23:36:34.394Z,79.67
2019-04-04T23:38:53.359Z,78.72
2019-04-04T23:41:21.830Z,81.22
2019-04-04T23:43:50.636Z,80.53
2019-04-04T23:46:19.527Z,84.35
2019-04-04T23:48:47.977Z,80.75
2019-04-04T23:51:16.532Z,82.92
2019-04-04T23:53:45.060Z,80.77
2019-04-04T23:56:13.534Z,85.15
2019-04-04T23:58:42.263Z,87.50
